Pagina principale
METAR-TAF:

METAR-TAF

Aeroporti :

Aeroporto di al-Jawf

Sakakah, Arabia Saudita

latitudine: 29-47N, longitudine: 040-06E, altezza: 689 m

Osservazione

Il bollettino è stato emesso 49 minuti fa, alle 04:00 UTC
Vento 3 kt da est
Temperature 32°C
Umidità 15%
Pressione 1013 hPa
Visibilità 10 km o più
nessuna nube inferiore a 1500 m e nessun cumulonembo

METAR: OESK 270400Z 08003KT CAVOK 32/02 Q1013

Ora: 07:49 (04:49 UTC)

Previsione

Il bollettino è stato emesso 5 ore e 49 minuti fa, alle 23:00 UTC
Previsione valida dal 27 alle 00 UTC al 28 alle 06 UTC
Vento 3 kt da direzioni variabili
Visibilità 10 km o più
nessuna nube inferiore a 1500 m e nessun cumulonembo
Evoluzione graduale
dal 27 alle 06 UTC al 27 alle 08 UTC
Vento 12 kt da nord/nord-ovest

TAF: OESK 262300Z 2700/2806 VRB03KT CAVOK BECMG 2706/2708 33012KT

Osservazioni e previsioni meteorologiche di più di 4000 aeroporti (messaggi METAR e TAF).

Le stazioni disponibili sono rappresentate dai dischi gialli e rossi sulla carta.

Puntare il mouse per vedere il nome della stazione.

Clicca sopra per visualizzare le osservazioni e previsioni meteorologiche.

Per cambiare la mappa : fare clic sui pulsanti verdi con una croce nera per ingrandire, il pulsante verde con un trattino per diminuire, o sulla freccia verde per le mappe adiacenti.


METAR-TAF: